sensor_id;sensor_type;location;lat;lon;timestamp;P1;durP1;ratioP1;P2;durP2;ratioP2
18580;SDS011;9420;50.876;7.012;2023-07-29T00:02:21;1.50;;;1.30;;
18580;SDS011;9420;50.876;7.012;2023-07-29T00:04:48;2.03;;;1.10;;
18580;SDS011;9420;50.876;7.012;2023-07-29T00:07:15;6.10;;;1.10;;
18580;SDS011;9420;50.876;7.012;2023-07-29T00:09:41;3.67;;;1.20;;
18580;SDS011;9420;50.876;7.012;2023-07-29T00:12:08;2.50;;;1.30;;
18580;SDS011;9420;50.876;7.012;2023-07-29T00:14:36;1.93;;;1.40;;
18580;SDS011;9420;50.876;7.012;2023-07-29T00:17:03;1.20;;;1.10;;
18580;SDS011;9420;50.876;7.012;2023-07-29T00:19:30;1.90;;;1.50;;
18580;SDS011;9420;50.876;7.012;2023-07-29T00:21:57;3.57;;;1.53;;
18580;SDS011;9420;50.876;7.012;2023-07-29T00:24:24;7.90;;;2.13;;
18580;SDS011;9420;50.876;7.012;2023-07-29T00:26:51;6.57;;;2.80;;
18580;SDS011;9420;50.876;7.012;2023-07-29T00:29:17;5.80;;;2.13;;
18580;SDS011;9420;50.876;7.012;2023-07-29T00:31:45;6.20;;;2.30;;
18580;SDS011;9420;50.876;7.012;2023-07-29T00:34:12;2.23;;;1.70;;
18580;SDS011;9420;50.876;7.012;2023-07-29T00:36:42;2.97;;;1.83;;
18580;SDS011;9420;50.876;7.012;2023-07-29T00:39:09;2.43;;;2.23;;
18580;SDS011;9420;50.876;7.012;2023-07-29T00:41:35;1.83;;;1.70;;
18580;SDS011;9420;50.876;7.012;2023-07-29T00:44:02;3.47;;;1.50;;
18580;SDS011;9420;50.876;7.012;2023-07-29T00:46:29;3.20;;;1.93;;
18580;SDS011;9420;50.876;7.012;2023-07-29T00:48:57;2.63;;;2.07;;
18580;SDS011;9420;50.876;7.012;2023-07-29T00:51:24;3.37;;;1.93;;
18580;SDS011;9420;50.876;7.012;2023-07-29T00:53:51;3.03;;;2.13;;
18580;SDS011;9420;50.876;7.012;2023-07-29T00:56:17;4.73;;;2.10;;
18580;SDS011;9420;50.876;7.012;2023-07-29T00:58:44;4.33;;;2.03;;
18580;SDS011;9420;50.876;7.012;2023-07-29T01:01:11;3.90;;;2.17;;
18580;SDS011;9420;50.876;7.012;2023-07-29T01:03:38;3.27;;;2.30;;
18580;SDS011;9420;50.876;7.012;2023-07-29T01:06:08;3.70;;;2.50;;
18580;SDS011;9420;50.876;7.012;2023-07-29T01:08:46;3.63;;;2.17;;
18580;SDS011;9420;50.876;7.012;2023-07-29T01:11:20;2.53;;;2.33;;
18580;SDS011;9420;50.876;7.012;2023-07-29T01:13:58;4.37;;;2.03;;
18580;SDS011;9420;50.876;7.012;2023-07-29T01:16:29;1.80;;;1.70;;
18580;SDS011;9420;50.876;7.012;2023-07-29T01:19:00;3.53;;;2.20;;
18580;SDS011;9420;50.876;7.012;2023-07-29T01:21:33;4.20;;;2.10;;
18580;SDS011;9420;50.876;7.012;2023-07-29T01:24:03;2.93;;;2.40;;
18580;SDS011;9420;50.876;7.012;2023-07-29T01:26:30;3.10;;;2.57;;
18580;SDS011;9420;50.876;7.012;2023-07-29T01:28:57;2.17;;;1.83;;
18580;SDS011;9420;50.876;7.012;2023-07-29T01:31:27;2.80;;;2.50;;
18580;SDS011;9420;50.876;7.012;2023-07-29T01:33:58;3.80;;;2.67;;
18580;SDS011;9420;50.876;7.012;2023-07-29T01:36:41;4.10;;;2.10;;
18580;SDS011;9420;50.876;7.012;2023-07-29T01:39:12;3.67;;;1.90;;
18580;SDS011;9420;50.876;7.012;2023-07-29T01:41:40;3.50;;;2.53;;
18580;SDS011;9420;50.876;7.012;2023-07-29T01:44:08;3.57;;;2.20;;
18580;SDS011;9420;50.876;7.012;2023-07-29T01:46:36;5.43;;;2.17;;
18580;SDS011;9420;50.876;7.012;2023-07-29T01:49:03;2.50;;;2.20;;
18580;SDS011;9420;50.876;7.012;2023-07-29T01:51:30;2.50;;;2.30;;
18580;SDS011;9420;50.876;7.012;2023-07-29T01:53:57;2.80;;;2.27;;
18580;SDS011;9420;50.876;7.012;2023-07-29T01:56:26;3.33;;;2.60;;
18580;SDS011;9420;50.876;7.012;2023-07-29T01:58:53;2.40;;;2.20;;
18580;SDS011;9420;50.876;7.012;2023-07-29T02:01:19;3.57;;;2.70;;
18580;SDS011;9420;50.876;7.012;2023-07-29T02:03:46;3.63;;;2.33;;
18580;SDS011;9420;50.876;7.012;2023-07-29T02:06:18;3.23;;;2.30;;
18580;SDS011;9420;50.876;7.012;2023-07-29T02:08:45;7.43;;;2.90;;
18580;SDS011;9420;50.876;7.012;2023-07-29T02:11:11;5.83;;;3.67;;
18580;SDS011;9420;50.876;7.012;2023-07-29T02:13:39;7.43;;;3.00;;
18580;SDS011;9420;50.876;7.012;2023-07-29T02:16:06;6.40;;;2.87;;
18580;SDS011;9420;50.876;7.012;2023-07-29T02:18:32;8.53;;;3.53;;
18580;SDS011;9420;50.876;7.012;2023-07-29T02:20:59;5.53;;;3.17;;
18580;SDS011;9420;50.876;7.012;2023-07-29T02:23:26;4.83;;;2.83;;
18580;SDS011;9420;50.876;7.012;2023-07-29T02:25:52;4.90;;;2.93;;
18580;SDS011;9420;50.876;7.012;2023-07-29T02:28:19;4.23;;;2.73;;
18580;SDS011;9420;50.876;7.012;2023-07-29T02:30:47;4.83;;;3.00;;
18580;SDS011;9420;50.876;7.012;2023-07-29T02:33:40;4.00;;;2.50;;
18580;SDS011;9420;50.876;7.012;2023-07-29T02:36:07;3.33;;;2.90;;
18580;SDS011;9420;50.876;7.012;2023-07-29T02:38:33;7.17;;;2.70;;
18580;SDS011;9420;50.876;7.012;2023-07-29T02:41:00;3.27;;;2.00;;
18580;SDS011;9420;50.876;7.012;2023-07-29T02:43:27;3.23;;;2.53;;
18580;SDS011;9420;50.876;7.012;2023-07-29T02:45:53;4.80;;;3.13;;
18580;SDS011;9420;50.876;7.012;2023-07-29T02:48:21;6.20;;;2.93;;
18580;SDS011;9420;50.876;7.012;2023-07-29T02:50:48;4.33;;;3.07;;
18580;SDS011;9420;50.876;7.012;2023-07-29T02:53:14;8.10;;;3.27;;
18580;SDS011;9420;50.876;7.012;2023-07-29T02:55:41;5.27;;;3.53;;
18580;SDS011;9420;50.876;7.012;2023-07-29T02:58:08;5.47;;;3.77;;
18580;SDS011;9420;50.876;7.012;2023-07-29T03:00:35;6.90;;;3.83;;
18580;SDS011;9420;50.876;7.012;2023-07-29T03:03:02;4.77;;;3.13;;
18580;SDS011;9420;50.876;7.012;2023-07-29T03:05:30;6.60;;;4.13;;
18580;SDS011;9420;50.876;7.012;2023-07-29T03:07:57;5.27;;;4.53;;
18580;SDS011;9420;50.876;7.012;2023-07-29T03:10:24;7.83;;;4.80;;
18580;SDS011;9420;50.876;7.012;2023-07-29T03:12:52;6.67;;;3.63;;
18580;SDS011;9420;50.876;7.012;2023-07-29T03:15:22;5.57;;;3.10;;
18580;SDS011;9420;50.876;7.012;2023-07-29T03:17:50;4.03;;;2.97;;
18580;SDS011;9420;50.876;7.012;2023-07-29T03:20:16;4.13;;;1.97;;
18580;SDS011;9420;50.876;7.012;2023-07-29T03:22:45;4.33;;;2.30;;
18580;SDS011;9420;50.876;7.012;2023-07-29T03:25:12;3.87;;;3.50;;
18580;SDS011;9420;50.876;7.012;2023-07-29T03:27:39;3.93;;;2.57;;
18580;SDS011;9420;50.876;7.012;2023-07-29T03:30:06;3.53;;;2.73;;
18580;SDS011;9420;50.876;7.012;2023-07-29T03:32:33;7.10;;;3.60;;
18580;SDS011;9420;50.876;7.012;2023-07-29T03:35:00;4.27;;;3.20;;
18580;SDS011;9420;50.876;7.012;2023-07-29T03:37:26;4.10;;;2.53;;
18580;SDS011;9420;50.876;7.012;2023-07-29T03:39:54;3.07;;;2.43;;
18580;SDS011;9420;50.876;7.012;2023-07-29T03:42:21;3.00;;;1.93;;
18580;SDS011;9420;50.876;7.012;2023-07-29T03:44:47;3.93;;;1.97;;
18580;SDS011;9420;50.876;7.012;2023-07-29T03:47:14;4.27;;;2.00;;
18580;SDS011;9420;50.876;7.012;2023-07-29T03:49:41;2.80;;;1.77;;
18580;SDS011;9420;50.876;7.012;2023-07-29T03:52:07;2.10;;;1.77;;
18580;SDS011;9420;50.876;7.012;2023-07-29T03:54:34;2.10;;;1.87;;
18580;SDS011;9420;50.876;7.012;2023-07-29T03:57:02;1.77;;;1.67;;
18580;SDS011;9420;50.876;7.012;2023-07-29T03:59:29;3.40;;;1.80;;
18580;SDS011;9420;50.876;7.012;2023-07-29T04:01:56;2.23;;;2.03;;
18580;SDS011;9420;50.876;7.012;2023-07-29T04:04:23;3.00;;;1.90;;
18580;SDS011;9420;50.876;7.012;2023-07-29T04:06:49;2.97;;;2.63;;
18580;SDS011;9420;50.876;7.012;2023-07-29T04:09:16;3.30;;;2.43;;
18580;SDS011;9420;50.876;7.012;2023-07-29T04:11:43;3.63;;;2.20;;
18580;SDS011;9420;50.876;7.012;2023-07-29T04:14:11;4.47;;;2.53;;
18580;SDS011;9420;50.876;7.012;2023-07-29T04:16:37;1.93;;;1.73;;
18580;SDS011;9420;50.876;7.012;2023-07-29T04:19:04;2.73;;;2.13;;
18580;SDS011;9420;50.876;7.012;2023-07-29T04:21:31;4.17;;;2.30;;
18580;SDS011;9420;50.876;7.012;2023-07-29T04:23:57;2.50;;;2.30;;
18580;SDS011;9420;50.876;7.012;2023-07-29T04:26:24;5.00;;;2.77;;
18580;SDS011;9420;50.876;7.012;2023-07-29T04:28:51;6.40;;;2.70;;
18580;SDS011;9420;50.876;7.012;2023-07-29T04:31:18;3.43;;;2.47;;
18580;SDS011;9420;50.876;7.012;2023-07-29T04:33:45;3.30;;;2.33;;
18580;SDS011;9420;50.876;7.012;2023-07-29T04:36:12;4.17;;;2.67;;
18580;SDS011;9420;50.876;7.012;2023-07-29T04:38:38;3.80;;;2.53;;
18580;SDS011;9420;50.876;7.012;2023-07-29T04:41:05;4.50;;;2.40;;
18580;SDS011;9420;50.876;7.012;2023-07-29T04:43:34;4.17;;;2.57;;
18580;SDS011;9420;50.876;7.012;2023-07-29T04:46:00;4.47;;;2.63;;
18580;SDS011;9420;50.876;7.012;2023-07-29T04:48:28;4.97;;;3.07;;
18580;SDS011;9420;50.876;7.012;2023-07-29T04:50:55;5.20;;;3.23;;
18580;SDS011;9420;50.876;7.012;2023-07-29T04:53:21;2.70;;;2.50;;
18580;SDS011;9420;50.876;7.012;2023-07-29T04:55:48;5.33;;;3.03;;
18580;SDS011;9420;50.876;7.012;2023-07-29T04:58:14;3.47;;;2.23;;
18580;SDS011;9420;50.876;7.012;2023-07-29T05:00:42;3.23;;;2.53;;
18580;SDS011;9420;50.876;7.012;2023-07-29T05:03:08;3.07;;;2.33;;
18580;SDS011;9420;50.876;7.012;2023-07-29T05:05:37;2.30;;;2.10;;
18580;SDS011;9420;50.876;7.012;2023-07-29T05:08:03;2.73;;;2.47;;
18580;SDS011;9420;50.876;7.012;2023-07-29T05:10:30;3.37;;;2.57;;
18580;SDS011;9420;50.876;7.012;2023-07-29T05:12:57;3.87;;;2.83;;
18580;SDS011;9420;50.876;7.012;2023-07-29T05:15:23;7.00;;;2.70;;
18580;SDS011;9420;50.876;7.012;2023-07-29T05:17:50;3.10;;;2.80;;
18580;SDS011;9420;50.876;7.012;2023-07-29T05:20:17;2.60;;;2.37;;
18580;SDS011;9420;50.876;7.012;2023-07-29T05:22:45;2.93;;;2.70;;
18580;SDS011;9420;50.876;7.012;2023-07-29T05:25:11;4.00;;;2.40;;
18580;SDS011;9420;50.876;7.012;2023-07-29T05:27:38;4.60;;;2.60;;
18580;SDS011;9420;50.876;7.012;2023-07-29T05:30:06;3.13;;;2.73;;
18580;SDS011;9420;50.876;7.012;2023-07-29T05:32:34;5.10;;;2.70;;
18580;SDS011;9420;50.876;7.012;2023-07-29T05:35:00;4.00;;;1.90;;
18580;SDS011;9420;50.876;7.012;2023-07-29T05:37:27;2.77;;;2.30;;
18580;SDS011;9420;50.876;7.012;2023-07-29T05:39:55;2.93;;;2.13;;
18580;SDS011;9420;50.876;7.012;2023-07-29T05:42:22;3.10;;;1.93;;
18580;SDS011;9420;50.876;7.012;2023-07-29T05:44:48;3.13;;;1.90;;
18580;SDS011;9420;50.876;7.012;2023-07-29T05:47:15;3.47;;;2.27;;
18580;SDS011;9420;50.876;7.012;2023-07-29T05:49:42;6.37;;;2.70;;
18580;SDS011;9420;50.876;7.012;2023-07-29T05:52:08;4.60;;;2.37;;
18580;SDS011;9420;50.876;7.012;2023-07-29T05:54:35;2.33;;;1.83;;
18580;SDS011;9420;50.876;7.012;2023-07-29T05:57:03;9.73;;;2.43;;
18580;SDS011;9420;50.876;7.012;2023-07-29T05:59:31;4.60;;;2.27;;
18580;SDS011;9420;50.876;7.012;2023-07-29T06:01:57;4.07;;;2.60;;
18580;SDS011;9420;50.876;7.012;2023-07-29T06:04:24;3.23;;;2.70;;
18580;SDS011;9420;50.876;7.012;2023-07-29T06:06:50;3.80;;;2.60;;
18580;SDS011;9420;50.876;7.012;2023-07-29T06:09:17;3.37;;;2.83;;
18580;SDS011;9420;50.876;7.012;2023-07-29T06:11:43;5.77;;;3.00;;
18580;SDS011;9420;50.876;7.012;2023-07-29T06:14:14;3.37;;;2.53;;
18580;SDS011;9420;50.876;7.012;2023-07-29T06:16:40;3.20;;;2.83;;
18580;SDS011;9420;50.876;7.012;2023-07-29T06:19:07;4.77;;;3.23;;
18580;SDS011;9420;50.876;7.012;2023-07-29T06:21:34;6.33;;;3.87;;
18580;SDS011;9420;50.876;7.012;2023-07-29T06:24:01;4.57;;;3.77;;
18580;SDS011;9420;50.876;7.012;2023-07-29T06:26:28;4.53;;;3.67;;
18580;SDS011;9420;50.876;7.012;2023-07-29T06:28:55;6.47;;;3.70;;
18580;SDS011;9420;50.876;7.012;2023-07-29T06:31:23;8.27;;;3.27;;
18580;SDS011;9420;50.876;7.012;2023-07-29T06:33:50;4.30;;;3.83;;
18580;SDS011;9420;50.876;7.012;2023-07-29T06:36:16;5.27;;;3.80;;
18580;SDS011;9420;50.876;7.012;2023-07-29T06:38:43;4.93;;;3.00;;
18580;SDS011;9420;50.876;7.012;2023-07-29T06:41:10;3.83;;;2.70;;
18580;SDS011;9420;50.876;7.012;2023-07-29T06:43:37;5.70;;;3.03;;
18580;SDS011;9420;50.876;7.012;2023-07-29T06:46:03;7.07;;;2.57;;
18580;SDS011;9420;50.876;7.012;2023-07-29T06:48:31;4.17;;;2.47;;
18580;SDS011;9420;50.876;7.012;2023-07-29T06:50:58;6.30;;;2.87;;
18580;SDS011;9420;50.876;7.012;2023-07-29T06:53:27;6.20;;;3.03;;
18580;SDS011;9420;50.876;7.012;2023-07-29T06:55:54;3.80;;;2.40;;
18580;SDS011;9420;50.876;7.012;2023-07-29T06:58:21;6.33;;;3.00;;
18580;SDS011;9420;50.876;7.012;2023-07-29T07:00:48;5.47;;;3.03;;
18580;SDS011;9420;50.876;7.012;2023-07-29T07:03:14;3.30;;;2.40;;
18580;SDS011;9420;50.876;7.012;2023-07-29T07:05:42;6.27;;;3.20;;
18580;SDS011;9420;50.876;7.012;2023-07-29T07:08:09;3.07;;;2.37;;
18580;SDS011;9420;50.876;7.012;2023-07-29T07:10:35;4.33;;;2.87;;
18580;SDS011;9420;50.876;7.012;2023-07-29T07:13:02;4.40;;;2.33;;
18580;SDS011;9420;50.876;7.012;2023-07-29T07:15:28;5.17;;;2.43;;
18580;SDS011;9420;50.876;7.012;2023-07-29T07:17:55;3.93;;;2.17;;
18580;SDS011;9420;50.876;7.012;2023-07-29T07:20:22;4.00;;;2.20;;
18580;SDS011;9420;50.876;7.012;2023-07-29T07:22:50;4.50;;;2.60;;
18580;SDS011;9420;50.876;7.012;2023-07-29T07:25:16;5.23;;;2.27;;
18580;SDS011;9420;50.876;7.012;2023-07-29T07:27:44;4.33;;;2.57;;
18580;SDS011;9420;50.876;7.012;2023-07-29T07:30:11;5.63;;;2.77;;
18580;SDS011;9420;50.876;7.012;2023-07-29T07:32:38;3.47;;;2.50;;
18580;SDS011;9420;50.876;7.012;2023-07-29T07:35:04;6.77;;;3.40;;
18580;SDS011;9420;50.876;7.012;2023-07-29T07:37:31;6.67;;;3.13;;
18580;SDS011;9420;50.876;7.012;2023-07-29T07:39:59;4.63;;;3.50;;
18580;SDS011;9420;50.876;7.012;2023-07-29T07:42:26;3.07;;;2.70;;
18580;SDS011;9420;50.876;7.012;2023-07-29T07:44:52;6.23;;;2.60;;
18580;SDS011;9420;50.876;7.012;2023-07-29T07:47:19;4.13;;;2.77;;
18580;SDS011;9420;50.876;7.012;2023-07-29T07:49:46;7.50;;;2.40;;
18580;SDS011;9420;50.876;7.012;2023-07-29T07:52:14;3.17;;;2.27;;
18580;SDS011;9420;50.876;7.012;2023-07-29T07:54:41;3.27;;;2.33;;
18580;SDS011;9420;50.876;7.012;2023-07-29T07:57:08;3.00;;;2.33;;
18580;SDS011;9420;50.876;7.012;2023-07-29T07:59:35;4.10;;;2.27;;
18580;SDS011;9420;50.876;7.012;2023-07-29T08:02:02;2.13;;;1.90;;
18580;SDS011;9420;50.876;7.012;2023-07-29T08:04:29;2.33;;;1.90;;
18580;SDS011;9420;50.876;7.012;2023-07-29T08:06:55;3.63;;;1.80;;
18580;SDS011;9420;50.876;7.012;2023-07-29T08:09:22;6.10;;;2.10;;
18580;SDS011;9420;50.876;7.012;2023-07-29T08:11:49;3.27;;;1.83;;
18580;SDS011;9420;50.876;7.012;2023-07-29T08:14:17;6.33;;;1.83;;
18580;SDS011;9420;50.876;7.012;2023-07-29T08:16:43;3.83;;;1.90;;
18580;SDS011;9420;50.876;7.012;2023-07-29T08:19:10;4.63;;;1.53;;
18580;SDS011;9420;50.876;7.012;2023-07-29T08:21:37;3.87;;;1.40;;
18580;SDS011;9420;50.876;7.012;2023-07-29T08:24:03;2.43;;;1.60;;
18580;SDS011;9420;50.876;7.012;2023-07-29T08:26:31;5.03;;;1.50;;
18580;SDS011;9420;50.876;7.012;2023-07-29T08:28:59;1.97;;;1.27;;
18580;SDS011;9420;50.876;7.012;2023-07-29T08:31:27;1.70;;;1.20;;
18580;SDS011;9420;50.876;7.012;2023-07-29T08:33:54;4.03;;;1.37;;
18580;SDS011;9420;50.876;7.012;2023-07-29T08:36:20;3.40;;;1.33;;
18580;SDS011;9420;50.876;7.012;2023-07-29T08:38:47;3.20;;;1.73;;
18580;SDS011;9420;50.876;7.012;2023-07-29T08:41:14;4.50;;;1.47;;
18580;SDS011;9420;50.876;7.012;2023-07-29T08:43:43;2.17;;;1.20;;
18580;SDS011;9420;50.876;7.012;2023-07-29T08:46:15;2.03;;;0.93;;
18580;SDS011;9420;50.876;7.012;2023-07-29T08:48:44;3.87;;;1.47;;
18580;SDS011;9420;50.876;7.012;2023-07-29T08:51:11;1.37;;;1.23;;
18580;SDS011;9420;50.876;7.012;2023-07-29T08:53:39;1.77;;;1.13;;
18580;SDS011;9420;50.876;7.012;2023-07-29T08:56:06;3.20;;;1.27;;
18580;SDS011;9420;50.876;7.012;2023-07-29T08:58:33;1.37;;;1.03;;
18580;SDS011;9420;50.876;7.012;2023-07-29T09:01:01;2.00;;;1.30;;
18580;SDS011;9420;50.876;7.012;2023-07-29T09:03:28;3.77;;;1.50;;
18580;SDS011;9420;50.876;7.012;2023-07-29T09:05:56;1.87;;;1.30;;
18580;SDS011;9420;50.876;7.012;2023-07-29T09:08:24;3.67;;;1.37;;
18580;SDS011;9420;50.876;7.012;2023-07-29T09:10:52;2.20;;;1.30;;
18580;SDS011;9420;50.876;7.012;2023-07-29T09:13:20;1.77;;;1.53;;
18580;SDS011;9420;50.876;7.012;2023-07-29T09:15:47;6.80;;;1.90;;
18580;SDS011;9420;50.876;7.012;2023-07-29T09:18:15;3.77;;;1.23;;
18580;SDS011;9420;50.876;7.012;2023-07-29T09:20:42;3.70;;;1.87;;
18580;SDS011;9420;50.876;7.012;2023-07-29T09:23:10;3.57;;;1.50;;
18580;SDS011;9420;50.876;7.012;2023-07-29T09:25:37;2.67;;;1.53;;
18580;SDS011;9420;50.876;7.012;2023-07-29T09:28:09;1.77;;;1.57;;
18580;SDS011;9420;50.876;7.012;2023-07-29T09:30:37;2.40;;;1.90;;
18580;SDS011;9420;50.876;7.012;2023-07-29T09:33:04;2.03;;;1.43;;
18580;SDS011;9420;50.876;7.012;2023-07-29T09:35:32;4.60;;;1.73;;
18580;SDS011;9420;50.876;7.012;2023-07-29T09:37:59;1.47;;;1.27;;
18580;SDS011;9420;50.876;7.012;2023-07-29T09:40:28;3.00;;;1.63;;
18580;SDS011;9420;50.876;7.012;2023-07-29T09:43:00;1.90;;;1.07;;
18580;SDS011;9420;50.876;7.012;2023-07-29T09:45:27;1.33;;;0.90;;
18580;SDS011;9420;50.876;7.012;2023-07-29T09:47:53;2.20;;;0.80;;
18580;SDS011;9420;50.876;7.012;2023-07-29T09:50:23;1.80;;;1.30;;
18580;SDS011;9420;50.876;7.012;2023-07-29T09:52:50;1.07;;;0.80;;
18580;SDS011;9420;50.876;7.012;2023-07-29T09:55:17;1.00;;;0.80;;
18580;SDS011;9420;50.876;7.012;2023-07-29T09:57:46;3.00;;;0.80;;
18580;SDS011;9420;50.876;7.012;2023-07-29T10:00:12;1.80;;;0.77;;
18580;SDS011;9420;50.876;7.012;2023-07-29T10:02:40;3.23;;;1.50;;
18580;SDS011;9420;50.876;7.012;2023-07-29T10:05:08;2.00;;;1.00;;
18580;SDS011;9420;50.876;7.012;2023-07-29T10:07:36;2.20;;;1.37;;
18580;SDS011;9420;50.876;7.012;2023-07-29T10:10:03;2.87;;;1.00;;
18580;SDS011;9420;50.876;7.012;2023-07-29T10:12:31;1.47;;;0.80;;
18580;SDS011;9420;50.876;7.012;2023-07-29T10:15:00;1.33;;;0.80;;
18580;SDS011;9420;50.876;7.012;2023-07-29T10:17:28;1.60;;;1.10;;
18580;SDS011;9420;50.876;7.012;2023-07-29T10:19:55;2.20;;;0.90;;
18580;SDS011;9420;50.876;7.012;2023-07-29T10:22:24;1.60;;;1.10;;
18580;SDS011;9420;50.876;7.012;2023-07-29T10:24:53;1.20;;;0.83;;
18580;SDS011;9420;50.876;7.012;2023-07-29T10:27:22;1.93;;;1.07;;
18580;SDS011;9420;50.876;7.012;2023-07-29T10:29:51;1.50;;;1.13;;
18580;SDS011;9420;50.876;7.012;2023-07-29T10:32:23;2.07;;;1.40;;
18580;SDS011;9420;50.876;7.012;2023-07-29T10:34:52;2.27;;;1.40;;
18580;SDS011;9420;50.876;7.012;2023-07-29T10:37:19;4.90;;;2.13;;
18580;SDS011;9420;50.876;7.012;2023-07-29T10:39:53;4.33;;;2.30;;
18580;SDS011;9420;50.876;7.012;2023-07-29T10:42:21;3.17;;;1.80;;
18580;SDS011;9420;50.876;7.012;2023-07-29T10:44:49;2.33;;;1.43;;
18580;SDS011;9420;50.876;7.012;2023-07-29T10:47:19;2.77;;;1.67;;
18580;SDS011;9420;50.876;7.012;2023-07-29T10:49:49;2.57;;;1.40;;
18580;SDS011;9420;50.876;7.012;2023-07-29T10:52:17;4.73;;;1.87;;
18580;SDS011;9420;50.876;7.012;2023-07-29T10:54:56;4.20;;;1.70;;
18580;SDS011;9420;50.876;7.012;2023-07-29T10:57:30;3.80;;;1.70;;
18580;SDS011;9420;50.876;7.012;2023-07-29T10:59:58;3.97;;;2.17;;
18580;SDS011;9420;50.876;7.012;2023-07-29T11:02:29;2.37;;;1.80;;
18580;SDS011;9420;50.876;7.012;2023-07-29T11:04:58;3.03;;;1.90;;
18580;SDS011;9420;50.876;7.012;2023-07-29T11:07:25;2.33;;;1.67;;
18580;SDS011;9420;50.876;7.012;2023-07-29T11:09:54;2.33;;;2.03;;
18580;SDS011;9420;50.876;7.012;2023-07-29T11:12:38;3.67;;;1.80;;
18580;SDS011;9420;50.876;7.012;2023-07-29T11:15:14;2.37;;;1.93;;
18580;SDS011;9420;50.876;7.012;2023-07-29T11:17:43;1.90;;;1.70;;
18580;SDS011;9420;50.876;7.012;2023-07-29T11:20:13;2.43;;;1.70;;
18580;SDS011;9420;50.876;7.012;2023-07-29T11:22:40;4.60;;;1.80;;
18580;SDS011;9420;50.876;7.012;2023-07-29T11:25:08;3.27;;;2.33;;
18580;SDS011;9420;50.876;7.012;2023-07-29T11:27:34;3.67;;;2.30;;
18580;SDS011;9420;50.876;7.012;2023-07-29T11:30:02;2.00;;;1.60;;
18580;SDS011;9420;50.876;7.012;2023-07-29T11:32:30;4.97;;;2.10;;
18580;SDS011;9420;50.876;7.012;2023-07-29T11:35:00;5.83;;;2.60;;
18580;SDS011;9420;50.876;7.012;2023-07-29T11:37:29;2.67;;;2.13;;
18580;SDS011;9420;50.876;7.012;2023-07-29T11:39:55;2.80;;;2.50;;
18580;SDS011;9420;50.876;7.012;2023-07-29T11:42:23;3.97;;;2.60;;
18580;SDS011;9420;50.876;7.012;2023-07-29T11:44:50;2.53;;;1.97;;
18580;SDS011;9420;50.876;7.012;2023-07-29T11:47:17;6.97;;;2.10;;
18580;SDS011;9420;50.876;7.012;2023-07-29T11:49:43;2.20;;;2.00;;
18580;SDS011;9420;50.876;7.012;2023-07-29T11:52:10;3.17;;;2.10;;
18580;SDS011;9420;50.876;7.012;2023-07-29T11:54:39;2.07;;;1.87;;
18580;SDS011;9420;50.876;7.012;2023-07-29T11:57:06;1.97;;;1.47;;
18580;SDS011;9420;50.876;7.012;2023-07-29T11:59:33;1.47;;;1.13;;
18580;SDS011;9420;50.876;7.012;2023-07-29T12:02:00;1.50;;;1.30;;
18580;SDS011;9420;50.876;7.012;2023-07-29T12:04:28;1.30;;;1.20;;
18580;SDS011;9420;50.876;7.012;2023-07-29T12:06:55;2.97;;;1.40;;
18580;SDS011;9420;50.876;7.012;2023-07-29T12:09:22;1.20;;;1.10;;
18580;SDS011;9420;50.876;7.012;2023-07-29T12:11:50;1.52;;;0.98;;
18580;SDS011;9420;50.876;7.012;2023-07-29T12:14:18;2.63;;;1.40;;
18580;SDS011;9420;50.876;7.012;2023-07-29T12:16:44;2.08;;;0.90;;
18580;SDS011;9420;50.876;7.012;2023-07-29T12:19:14;1.17;;;1.08;;
18580;SDS011;9420;50.876;7.012;2023-07-29T12:21:42;1.20;;;0.98;;
18580;SDS011;9420;50.876;7.012;2023-07-29T12:24:09;1.27;;;1.17;;
18580;SDS011;9420;50.876;7.012;2023-07-29T12:26:35;1.35;;;1.20;;
18580;SDS011;9420;50.876;7.012;2023-07-29T12:29:11;2.65;;;0.98;;
18580;SDS011;9420;50.876;7.012;2023-07-29T12:31:39;0.93;;;0.82;;
18580;SDS011;9420;50.876;7.012;2023-07-29T12:34:06;0.80;;;0.80;;
18580;SDS011;9420;50.876;7.012;2023-07-29T12:36:41;2.00;;;1.45;;
18580;SDS011;9420;50.876;7.012;2023-07-29T12:39:15;1.58;;;1.08;;
18580;SDS011;9420;50.876;7.012;2023-07-29T12:41:42;2.25;;;1.10;;
18580;SDS011;9420;50.876;7.012;2023-07-29T12:44:13;2.67;;;1.02;;
18580;SDS011;9420;50.876;7.012;2023-07-29T12:46:40;2.40;;;0.90;;
18580;SDS011;9420;50.876;7.012;2023-07-29T12:49:06;1.70;;;0.85;;
18580;SDS011;9420;50.876;7.012;2023-07-29T12:51:33;2.08;;;0.98;;
18580;SDS011;9420;50.876;7.012;2023-07-29T12:54:01;3.50;;;0.95;;
18580;SDS011;9420;50.876;7.012;2023-07-29T12:56:28;1.42;;;0.70;;
18580;SDS011;9420;50.876;7.012;2023-07-29T12:58:55;0.90;;;0.80;;
18580;SDS011;9420;50.876;7.012;2023-07-29T13:01:24;2.13;;;1.00;;
18580;SDS011;9420;50.876;7.012;2023-07-29T13:03:50;1.10;;;1.00;;
18580;SDS011;9420;50.876;7.012;2023-07-29T13:06:17;0.77;;;0.77;;
18580;SDS011;9420;50.876;7.012;2023-07-29T13:08:44;1.00;;;0.88;;
18580;SDS011;9420;50.876;7.012;2023-07-29T13:11:11;1.38;;;1.23;;
18580;SDS011;9420;50.876;7.012;2023-07-29T13:13:37;2.55;;;1.02;;
18580;SDS011;9420;50.876;7.012;2023-07-29T13:16:04;1.65;;;1.48;;
18580;SDS011;9420;50.876;7.012;2023-07-29T13:18:32;1.27;;;0.77;;
18580;SDS011;9420;50.876;7.012;2023-07-29T13:20:59;0.82;;;0.73;;
18580;SDS011;9420;50.876;7.012;2023-07-29T13:23:26;1.85;;;1.05;;
18580;SDS011;9420;50.876;7.012;2023-07-29T13:25:53;1.30;;;1.13;;
18580;SDS011;9420;50.876;7.012;2023-07-29T13:28:19;1.37;;;1.27;;
18580;SDS011;9420;50.876;7.012;2023-07-29T13:30:46;1.70;;;1.60;;
18580;SDS011;9420;50.876;7.012;2023-07-29T13:33:13;1.30;;;1.20;;
18580;SDS011;9420;50.876;7.012;2023-07-29T13:35:41;2.70;;;1.70;;
18580;SDS011;9420;50.876;7.012;2023-07-29T13:38:07;3.50;;;2.80;;
18580;SDS011;9420;50.876;7.012;2023-07-29T13:40:34;3.80;;;3.13;;
18580;SDS011;9420;50.876;7.012;2023-07-29T13:43:00;4.07;;;2.53;;
18580;SDS011;9420;50.876;7.012;2023-07-29T13:45:27;2.80;;;2.27;;
18580;SDS011;9420;50.876;7.012;2023-07-29T13:47:53;3.93;;;2.70;;
18580;SDS011;9420;50.876;7.012;2023-07-29T13:50:20;6.30;;;2.20;;
18580;SDS011;9420;50.876;7.012;2023-07-29T13:52:48;3.47;;;1.90;;
18580;SDS011;9420;50.876;7.012;2023-07-29T13:55:15;5.03;;;2.30;;
18580;SDS011;9420;50.876;7.012;2023-07-29T13:57:41;3.93;;;1.63;;
18580;SDS011;9420;50.876;7.012;2023-07-29T14:00:08;2.83;;;2.50;;
18580;SDS011;9420;50.876;7.012;2023-07-29T14:02:35;5.97;;;2.57;;
18580;SDS011;9420;50.876;7.012;2023-07-29T14:05:02;4.93;;;2.57;;
18580;SDS011;9420;50.876;7.012;2023-07-29T14:07:29;3.40;;;2.50;;
18580;SDS011;9420;50.876;7.012;2023-07-29T14:09:56;4.10;;;2.80;;
18580;SDS011;9420;50.876;7.012;2023-07-29T14:12:23;1.90;;;1.40;;
18580;SDS011;9420;50.876;7.012;2023-07-29T14:14:50;1.70;;;1.60;;
18580;SDS011;9420;50.876;7.012;2023-07-29T14:17:16;3.37;;;2.00;;
18580;SDS011;9420;50.876;7.012;2023-07-29T14:19:43;3.70;;;1.60;;
18580;SDS011;9420;50.876;7.012;2023-07-29T14:22:11;5.13;;;1.57;;
18580;SDS011;9420;50.876;7.012;2023-07-29T14:24:37;2.07;;;1.87;;
18580;SDS011;9420;50.876;7.012;2023-07-29T14:27:06;3.10;;;2.20;;
18580;SDS011;9420;50.876;7.012;2023-07-29T14:29:32;3.30;;;2.30;;
18580;SDS011;9420;50.876;7.012;2023-07-29T14:31:59;3.10;;;2.00;;
18580;SDS011;9420;50.876;7.012;2023-07-29T14:34:25;4.17;;;2.17;;
18580;SDS011;9420;50.876;7.012;2023-07-29T14:36:52;2.23;;;1.90;;
18580;SDS011;9420;50.876;7.012;2023-07-29T14:39:19;7.07;;;2.07;;
18580;SDS011;9420;50.876;7.012;2023-07-29T14:41:45;2.70;;;1.90;;
18580;SDS011;9420;50.876;7.012;2023-07-29T14:44:13;2.47;;;1.80;;
18580;SDS011;9420;50.876;7.012;2023-07-29T14:46:40;3.83;;;2.27;;
18580;SDS011;9420;50.876;7.012;2023-07-29T14:49:06;4.20;;;1.87;;
18580;SDS011;9420;50.876;7.012;2023-07-29T14:51:33;2.30;;;1.87;;
18580;SDS011;9420;50.876;7.012;2023-07-29T14:54:00;2.90;;;2.00;;
18580;SDS011;9420;50.876;7.012;2023-07-29T14:56:27;3.57;;;1.80;;
18580;SDS011;9420;50.876;7.012;2023-07-29T14:58:53;3.43;;;2.00;;
18580;SDS011;9420;50.876;7.012;2023-07-29T15:01:22;5.77;;;1.87;;
18580;SDS011;9420;50.876;7.012;2023-07-29T15:03:48;5.00;;;1.87;;